sensor_id;sensor_type;location;lat;lon;timestamp;temperature;humidity
6581;DHT22;3324;50.796;7.228;2023-07-02T00:00:20;17.60;99.90
6581;DHT22;3324;50.796;7.228;2023-07-02T00:02:47;17.60;99.90
6581;DHT22;3324;50.796;7.228;2023-07-02T00:05:12;17.60;99.90
6581;DHT22;3324;50.796;7.228;2023-07-02T00:07:38;17.60;99.90
6581;DHT22;3324;50.796;7.228;2023-07-02T00:10:04;17.60;99.90
6581;DHT22;3324;50.796;7.228;2023-07-02T00:12:30;17.50;99.90
6581;DHT22;3324;50.796;7.228;2023-07-02T00:14:55;17.40;99.90
6581;DHT22;3324;50.796;7.228;2023-07-02T00:17:21;17.40;99.90
6581;DHT22;3324;50.796;7.228;2023-07-02T00:19:47;17.30;99.90
6581;DHT22;3324;50.796;7.228;2023-07-02T00:22:17;17.30;99.90
6581;DHT22;3324;50.796;7.228;2023-07-02T00:24:42;17.20;99.90
6581;DHT22;3324;50.796;7.228;2023-07-02T00:27:08;17.20;99.90
6581;DHT22;3324;50.796;7.228;2023-07-02T00:29:33;17.20;99.90
6581;DHT22;3324;50.796;7.228;2023-07-02T00:31:59;17.20;99.90
6581;DHT22;3324;50.796;7.228;2023-07-02T00:34:24;17.20;99.90
6581;DHT22;3324;50.796;7.228;2023-07-02T00:36:50;17.20;99.90
6581;DHT22;3324;50.796;7.228;2023-07-02T00:39:15;17.20;99.90
6581;DHT22;3324;50.796;7.228;2023-07-02T00:41:43;17.30;99.90
6581;DHT22;3324;50.796;7.228;2023-07-02T00:44:12;17.30;99.90
6581;DHT22;3324;50.796;7.228;2023-07-02T00:46:38;17.30;99.90
6581;DHT22;3324;50.796;7.228;2023-07-02T00:49:04;17.30;99.90
6581;DHT22;3324;50.796;7.228;2023-07-02T00:51:30;17.40;99.90
6581;DHT22;3324;50.796;7.228;2023-07-02T00:53:58;17.30;99.90
6581;DHT22;3324;50.796;7.228;2023-07-02T00:56:25;17.30;99.90
6581;DHT22;3324;50.796;7.228;2023-07-02T00:58:55;17.30;99.90
6581;DHT22;3324;50.796;7.228;2023-07-02T01:01:25;17.30;99.90
6581;DHT22;3324;50.796;7.228;2023-07-02T01:06:32;17.10;99.90
6581;DHT22;3324;50.796;7.228;2023-07-02T01:09:07;17.00;99.90
6581;DHT22;3324;50.796;7.228;2023-07-02T01:11:43;17.10;99.90
6581;DHT22;3324;50.796;7.228;2023-07-02T01:14:17;17.10;99.90
6581;DHT22;3324;50.796;7.228;2023-07-02T01:16:44;17.10;99.90
6581;DHT22;3324;50.796;7.228;2023-07-02T01:19:15;17.10;99.90
6581;DHT22;3324;50.796;7.228;2023-07-02T01:21:45;17.00;99.90
6581;DHT22;3324;50.796;7.228;2023-07-02T01:24:10;17.10;99.90
6581;DHT22;3324;50.796;7.228;2023-07-02T01:26:36;17.10;99.90
6581;DHT22;3324;50.796;7.228;2023-07-02T01:29:20;17.10;99.90
6581;DHT22;3324;50.796;7.228;2023-07-02T01:31:46;17.00;99.90
6581;DHT22;3324;50.796;7.228;2023-07-02T01:34:13;17.00;99.90
6581;DHT22;3324;50.796;7.228;2023-07-02T01:36:39;17.00;99.90
6581;DHT22;3324;50.796;7.228;2023-07-02T01:39:06;17.00;99.90
6581;DHT22;3324;50.796;7.228;2023-07-02T01:41:43;17.00;99.90
6581;DHT22;3324;50.796;7.228;2023-07-02T01:44:09;17.10;99.90
6581;DHT22;3324;50.796;7.228;2023-07-02T01:46:35;17.00;99.90
6581;DHT22;3324;50.796;7.228;2023-07-02T01:49:01;17.00;99.90
6581;DHT22;3324;50.796;7.228;2023-07-02T01:51:26;16.90;99.90
6581;DHT22;3324;50.796;7.228;2023-07-02T01:53:52;16.90;99.90
6581;DHT22;3324;50.796;7.228;2023-07-02T01:56:17;16.90;99.90
6581;DHT22;3324;50.796;7.228;2023-07-02T01:58:43;16.90;99.90
6581;DHT22;3324;50.796;7.228;2023-07-02T02:01:08;16.80;99.90
6581;DHT22;3324;50.796;7.228;2023-07-02T02:03:34;16.70;99.90
6581;DHT22;3324;50.796;7.228;2023-07-02T02:06:00;16.60;99.90
6581;DHT22;3324;50.796;7.228;2023-07-02T02:08:25;16.70;99.90
6581;DHT22;3324;50.796;7.228;2023-07-02T02:10:51;16.60;99.90
6581;DHT22;3324;50.796;7.228;2023-07-02T02:13:16;16.60;99.90
6581;DHT22;3324;50.796;7.228;2023-07-02T02:15:42;16.50;99.90
6581;DHT22;3324;50.796;7.228;2023-07-02T02:18:07;16.60;99.90
6581;DHT22;3324;50.796;7.228;2023-07-02T02:20:33;16.50;99.90
6581;DHT22;3324;50.796;7.228;2023-07-02T02:22:58;16.40;99.90
6581;DHT22;3324;50.796;7.228;2023-07-02T02:25:24;16.40;99.90
6581;DHT22;3324;50.796;7.228;2023-07-02T02:27:50;16.40;99.90
6581;DHT22;3324;50.796;7.228;2023-07-02T02:30:15;16.40;99.90
6581;DHT22;3324;50.796;7.228;2023-07-02T02:32:41;16.40;99.90
6581;DHT22;3324;50.796;7.228;2023-07-02T02:35:07;16.40;99.90
6581;DHT22;3324;50.796;7.228;2023-07-02T02:37:34;16.40;99.90
6581;DHT22;3324;50.796;7.228;2023-07-02T02:40:00;16.40;99.90
6581;DHT22;3324;50.796;7.228;2023-07-02T02:42:26;16.40;99.90
6581;DHT22;3324;50.796;7.228;2023-07-02T02:44:51;16.30;99.90
6581;DHT22;3324;50.796;7.228;2023-07-02T02:47:17;16.30;99.90
6581;DHT22;3324;50.796;7.228;2023-07-02T02:49:43;16.30;99.90
6581;DHT22;3324;50.796;7.228;2023-07-02T02:52:08;16.30;99.90
6581;DHT22;3324;50.796;7.228;2023-07-02T02:54:34;16.30;99.90
6581;DHT22;3324;50.796;7.228;2023-07-02T02:57:00;16.20;99.90
6581;DHT22;3324;50.796;7.228;2023-07-02T02:59:25;16.20;99.90
6581;DHT22;3324;50.796;7.228;2023-07-02T03:01:51;16.20;99.90
6581;DHT22;3324;50.796;7.228;2023-07-02T03:04:17;16.20;99.90
6581;DHT22;3324;50.796;7.228;2023-07-02T03:06:42;16.20;99.90
6581;DHT22;3324;50.796;7.228;2023-07-02T03:09:08;16.20;99.90
6581;DHT22;3324;50.796;7.228;2023-07-02T03:11:33;16.20;99.90
6581;DHT22;3324;50.796;7.228;2023-07-02T03:13:59;16.20;99.90
6581;DHT22;3324;50.796;7.228;2023-07-02T03:16:25;16.20;99.90
6581;DHT22;3324;50.796;7.228;2023-07-02T03:18:50;16.20;99.90
6581;DHT22;3324;50.796;7.228;2023-07-02T03:21:16;16.20;99.90
6581;DHT22;3324;50.796;7.228;2023-07-02T03:23:42;16.20;99.90
6581;DHT22;3324;50.796;7.228;2023-07-02T03:26:07;16.20;99.90
6581;DHT22;3324;50.796;7.228;2023-07-02T03:28:33;16.20;99.90
6581;DHT22;3324;50.796;7.228;2023-07-02T03:31:00;16.30;99.90
6581;DHT22;3324;50.796;7.228;2023-07-02T03:33:25;16.30;99.90
6581;DHT22;3324;50.796;7.228;2023-07-02T03:35:51;16.30;99.90
6581;DHT22;3324;50.796;7.228;2023-07-02T03:38:17;16.40;99.90
6581;DHT22;3324;50.796;7.228;2023-07-02T03:40:42;16.50;99.90
6581;DHT22;3324;50.796;7.228;2023-07-02T03:43:08;16.40;99.90
6581;DHT22;3324;50.796;7.228;2023-07-02T03:45:33;16.40;99.90
6581;DHT22;3324;50.796;7.228;2023-07-02T03:47:59;16.30;99.90
6581;DHT22;3324;50.796;7.228;2023-07-02T03:50:24;16.20;99.90
6581;DHT22;3324;50.796;7.228;2023-07-02T03:52:50;16.10;99.90
6581;DHT22;3324;50.796;7.228;2023-07-02T03:55:15;16.20;99.90
6581;DHT22;3324;50.796;7.228;2023-07-02T03:57:41;16.10;99.90
6581;DHT22;3324;50.796;7.228;2023-07-02T04:00:07;16.10;99.90
6581;DHT22;3324;50.796;7.228;2023-07-02T04:02:35;16.10;99.90
6581;DHT22;3324;50.796;7.228;2023-07-02T04:05:01;16.10;99.90
6581;DHT22;3324;50.796;7.228;2023-07-02T04:07:28;16.10;99.90
6581;DHT22;3324;50.796;7.228;2023-07-02T04:09:53;16.10;99.90
6581;DHT22;3324;50.796;7.228;2023-07-02T04:12:19;16.10;99.90
6581;DHT22;3324;50.796;7.228;2023-07-02T04:14:44;16.20;99.90
6581;DHT22;3324;50.796;7.228;2023-07-02T04:17:10;16.20;99.90
6581;DHT22;3324;50.796;7.228;2023-07-02T04:19:35;16.30;99.90
6581;DHT22;3324;50.796;7.228;2023-07-02T04:22:01;16.40;99.90
6581;DHT22;3324;50.796;7.228;2023-07-02T04:24:28;16.50;99.90
6581;DHT22;3324;50.796;7.228;2023-07-02T04:26:53;16.50;99.90
6581;DHT22;3324;50.796;7.228;2023-07-02T04:29:19;16.50;99.90
6581;DHT22;3324;50.796;7.228;2023-07-02T04:31:45;16.50;99.90
6581;DHT22;3324;50.796;7.228;2023-07-02T04:34:10;16.60;99.90
6581;DHT22;3324;50.796;7.228;2023-07-02T04:36:36;16.50;99.90
6581;DHT22;3324;50.796;7.228;2023-07-02T04:39:01;16.60;99.90
6581;DHT22;3324;50.796;7.228;2023-07-02T04:41:27;16.70;99.90
6581;DHT22;3324;50.796;7.228;2023-07-02T04:43:55;16.70;99.90
6581;DHT22;3324;50.796;7.228;2023-07-02T04:46:20;16.60;99.90
6581;DHT22;3324;50.796;7.228;2023-07-02T04:48:46;16.70;99.90
6581;DHT22;3324;50.796;7.228;2023-07-02T04:51:11;16.70;99.90
6581;DHT22;3324;50.796;7.228;2023-07-02T04:53:37;16.60;99.90
6581;DHT22;3324;50.796;7.228;2023-07-02T04:56:03;16.60;99.90
6581;DHT22;3324;50.796;7.228;2023-07-02T04:58:29;16.70;99.90
6581;DHT22;3324;50.796;7.228;2023-07-02T05:00:54;16.70;99.90
6581;DHT22;3324;50.796;7.228;2023-07-02T05:03:20;16.60;99.90
6581;DHT22;3324;50.796;7.228;2023-07-02T05:05:45;16.70;99.90
6581;DHT22;3324;50.796;7.228;2023-07-02T05:08:11;16.80;99.90
6581;DHT22;3324;50.796;7.228;2023-07-02T05:10:36;16.70;99.90
6581;DHT22;3324;50.796;7.228;2023-07-02T05:13:02;16.70;99.90
6581;DHT22;3324;50.796;7.228;2023-07-02T05:15:27;16.60;99.90
6581;DHT22;3324;50.796;7.228;2023-07-02T05:17:53;16.60;99.90
6581;DHT22;3324;50.796;7.228;2023-07-02T05:20:18;16.60;99.90
6581;DHT22;3324;50.796;7.228;2023-07-02T05:22:44;16.60;99.90
6581;DHT22;3324;50.796;7.228;2023-07-02T05:25:10;16.60;99.90
6581;DHT22;3324;50.796;7.228;2023-07-02T05:27:35;16.70;99.90
6581;DHT22;3324;50.796;7.228;2023-07-02T05:30:01;16.70;99.90
6581;DHT22;3324;50.796;7.228;2023-07-02T05:32:26;16.70;99.90
6581;DHT22;3324;50.796;7.228;2023-07-02T05:34:52;16.70;99.90
6581;DHT22;3324;50.796;7.228;2023-07-02T05:37:17;16.80;99.90
6581;DHT22;3324;50.796;7.228;2023-07-02T05:39:43;16.80;99.90
6581;DHT22;3324;50.796;7.228;2023-07-02T05:42:09;16.90;99.90
6581;DHT22;3324;50.796;7.228;2023-07-02T05:44:34;16.90;99.90
6581;DHT22;3324;50.796;7.228;2023-07-02T05:47:00;16.90;99.90
6581;DHT22;3324;50.796;7.228;2023-07-02T05:49:25;17.00;99.90
6581;DHT22;3324;50.796;7.228;2023-07-02T05:51:52;17.10;99.90
6581;DHT22;3324;50.796;7.228;2023-07-02T05:54:17;17.20;99.90
6581;DHT22;3324;50.796;7.228;2023-07-02T05:56:43;17.20;99.90
6581;DHT22;3324;50.796;7.228;2023-07-02T05:59:08;17.30;99.90
6581;DHT22;3324;50.796;7.228;2023-07-02T06:01:34;17.40;99.90
6581;DHT22;3324;50.796;7.228;2023-07-02T06:03:59;17.40;99.90
6581;DHT22;3324;50.796;7.228;2023-07-02T06:06:25;17.40;99.90
6581;DHT22;3324;50.796;7.228;2023-07-02T06:08:51;17.40;99.90
6581;DHT22;3324;50.796;7.228;2023-07-02T06:11:17;17.50;99.90
6581;DHT22;3324;50.796;7.228;2023-07-02T06:13:42;17.50;99.90
6581;DHT22;3324;50.796;7.228;2023-07-02T06:16:08;17.50;99.90
6581;DHT22;3324;50.796;7.228;2023-07-02T06:18:34;17.50;99.90
6581;DHT22;3324;50.796;7.228;2023-07-02T06:20:59;17.50;99.90
6581;DHT22;3324;50.796;7.228;2023-07-02T06:23:25;17.50;99.90
6581;DHT22;3324;50.796;7.228;2023-07-02T06:25:51;17.50;99.90
6581;DHT22;3324;50.796;7.228;2023-07-02T06:28:25;17.50;99.90
6581;DHT22;3324;50.796;7.228;2023-07-02T06:30:50;17.50;99.90
6581;DHT22;3324;50.796;7.228;2023-07-02T06:33:16;17.60;99.90
6581;DHT22;3324;50.796;7.228;2023-07-02T06:35:41;17.70;99.90
6581;DHT22;3324;50.796;7.228;2023-07-02T06:38:07;17.70;99.90
6581;DHT22;3324;50.796;7.228;2023-07-02T06:40:33;17.80;99.90
6581;DHT22;3324;50.796;7.228;2023-07-02T06:42:59;17.90;99.90
6581;DHT22;3324;50.796;7.228;2023-07-02T06:45:25;18.00;99.90
6581;DHT22;3324;50.796;7.228;2023-07-02T06:47:50;18.00;99.90
6581;DHT22;3324;50.796;7.228;2023-07-02T06:50:16;18.00;99.90
6581;DHT22;3324;50.796;7.228;2023-07-02T06:52:41;18.10;99.90
6581;DHT22;3324;50.796;7.228;2023-07-02T06:55:07;18.10;99.90
6581;DHT22;3324;50.796;7.228;2023-07-02T06:57:33;18.20;99.90
6581;DHT22;3324;50.796;7.228;2023-07-02T06:59:59;18.20;99.90
6581;DHT22;3324;50.796;7.228;2023-07-02T07:02:25;18.30;99.90
6581;DHT22;3324;50.796;7.228;2023-07-02T07:04:51;18.30;99.90
6581;DHT22;3324;50.796;7.228;2023-07-02T07:07:16;18.30;99.90
6581;DHT22;3324;50.796;7.228;2023-07-02T07:09:42;18.40;99.90
6581;DHT22;3324;50.796;7.228;2023-07-02T07:12:07;18.40;99.90
6581;DHT22;3324;50.796;7.228;2023-07-02T07:14:33;18.40;99.90
6581;DHT22;3324;50.796;7.228;2023-07-02T07:16:58;18.50;99.90
6581;DHT22;3324;50.796;7.228;2023-07-02T07:19:24;18.60;99.90
6581;DHT22;3324;50.796;7.228;2023-07-02T07:21:49;18.60;99.90
6581;DHT22;3324;50.796;7.228;2023-07-02T07:24:15;18.80;99.90
6581;DHT22;3324;50.796;7.228;2023-07-02T07:26:40;18.80;99.90
6581;DHT22;3324;50.796;7.228;2023-07-02T07:29:06;18.80;99.90
6581;DHT22;3324;50.796;7.228;2023-07-02T07:31:32;18.80;99.90
6581;DHT22;3324;50.796;7.228;2023-07-02T07:33:57;18.80;99.90
6581;DHT22;3324;50.796;7.228;2023-07-02T07:36:23;18.90;99.90
6581;DHT22;3324;50.796;7.228;2023-07-02T07:38:48;18.90;99.90
6581;DHT22;3324;50.796;7.228;2023-07-02T07:41:14;19.00;99.90
6581;DHT22;3324;50.796;7.228;2023-07-02T07:43:39;19.00;99.90
6581;DHT22;3324;50.796;7.228;2023-07-02T07:46:05;19.00;99.90
6581;DHT22;3324;50.796;7.228;2023-07-02T07:48:30;19.10;99.90
6581;DHT22;3324;50.796;7.228;2023-07-02T07:50:56;19.20;99.90
6581;DHT22;3324;50.796;7.228;2023-07-02T07:53:21;19.20;99.90
6581;DHT22;3324;50.796;7.228;2023-07-02T07:55:47;19.30;99.90
6581;DHT22;3324;50.796;7.228;2023-07-02T07:58:13;19.30;99.90
6581;DHT22;3324;50.796;7.228;2023-07-02T08:00:38;19.40;99.90
6581;DHT22;3324;50.796;7.228;2023-07-02T08:03:04;19.50;99.90
6581;DHT22;3324;50.796;7.228;2023-07-02T08:05:32;19.50;99.90
6581;DHT22;3324;50.796;7.228;2023-07-02T08:07:58;19.50;99.90
6581;DHT22;3324;50.796;7.228;2023-07-02T08:10:24;19.50;99.90
6581;DHT22;3324;50.796;7.228;2023-07-02T08:12:50;19.60;99.90
6581;DHT22;3324;50.796;7.228;2023-07-02T08:15:17;19.70;99.90
6581;DHT22;3324;50.796;7.228;2023-07-02T08:17:43;19.70;99.90
6581;DHT22;3324;50.796;7.228;2023-07-02T08:20:09;19.70;99.90
6581;DHT22;3324;50.796;7.228;2023-07-02T08:22:38;19.70;99.90
6581;DHT22;3324;50.796;7.228;2023-07-02T08:25:05;19.90;99.90
6581;DHT22;3324;50.796;7.228;2023-07-02T08:27:31;20.00;99.90
6581;DHT22;3324;50.796;7.228;2023-07-02T08:29:57;20.00;99.90
6581;DHT22;3324;50.796;7.228;2023-07-02T08:32:22;20.00;99.90
6581;DHT22;3324;50.796;7.228;2023-07-02T08:34:48;20.10;99.90
6581;DHT22;3324;50.796;7.228;2023-07-02T08:37:16;20.10;99.90
6581;DHT22;3324;50.796;7.228;2023-07-02T08:39:42;20.10;99.90
6581;DHT22;3324;50.796;7.228;2023-07-02T08:42:08;20.20;99.90
6581;DHT22;3324;50.796;7.228;2023-07-02T08:44:34;20.20;99.90
6581;DHT22;3324;50.796;7.228;2023-07-02T08:47:00;20.40;99.90
6581;DHT22;3324;50.796;7.228;2023-07-02T08:49:26;20.40;99.90
6581;DHT22;3324;50.796;7.228;2023-07-02T08:51:52;20.50;99.90
6581;DHT22;3324;50.796;7.228;2023-07-02T08:54:18;20.60;99.90
6581;DHT22;3324;50.796;7.228;2023-07-02T08:56:44;20.50;99.90
6581;DHT22;3324;50.796;7.228;2023-07-02T08:59:10;20.60;99.90
6581;DHT22;3324;50.796;7.228;2023-07-02T09:01:46;20.40;99.90
6581;DHT22;3324;50.796;7.228;2023-07-02T09:04:25;20.40;99.90
6581;DHT22;3324;50.796;7.228;2023-07-02T09:07:11;20.40;99.90
6581;DHT22;3324;50.796;7.228;2023-07-02T09:09:50;20.30;99.90
6581;DHT22;3324;50.796;7.228;2023-07-02T09:12:29;20.20;99.90
6581;DHT22;3324;50.796;7.228;2023-07-02T09:17:26;20.20;99.90
6581;DHT22;3324;50.796;7.228;2023-07-02T09:19:51;20.20;99.90
6581;DHT22;3324;50.796;7.228;2023-07-02T09:22:17;20.20;99.90
6581;DHT22;3324;50.796;7.228;2023-07-02T09:24:54;20.20;99.90
6581;DHT22;3324;50.796;7.228;2023-07-02T09:27:20;20.30;99.90
6581;DHT22;3324;50.796;7.228;2023-07-02T09:29:50;20.40;99.90
6581;DHT22;3324;50.796;7.228;2023-07-02T09:32:25;20.50;99.90
6581;DHT22;3324;50.796;7.228;2023-07-02T09:34:54;20.60;99.90
6581;DHT22;3324;50.796;7.228;2023-07-02T09:37:21;20.80;99.90
6581;DHT22;3324;50.796;7.228;2023-07-02T09:39:51;20.80;99.90
6581;DHT22;3324;50.796;7.228;2023-07-02T09:42:19;20.90;99.90
6581;DHT22;3324;50.796;7.228;2023-07-02T09:44:46;20.80;99.90
6581;DHT22;3324;50.796;7.228;2023-07-02T09:47:13;20.70;99.90
6581;DHT22;3324;50.796;7.228;2023-07-02T09:49:45;20.50;99.90
6581;DHT22;3324;50.796;7.228;2023-07-02T09:52:13;20.50;99.90
6581;DHT22;3324;50.796;7.228;2023-07-02T09:54:39;20.50;99.90
6581;DHT22;3324;50.796;7.228;2023-07-02T09:57:05;20.60;99.90
6581;DHT22;3324;50.796;7.228;2023-07-02T09:59:33;20.70;99.90
6581;DHT22;3324;50.796;7.228;2023-07-02T10:01:59;20.90;99.90
6581;DHT22;3324;50.796;7.228;2023-07-02T10:04:25;21.30;99.90
6581;DHT22;3324;50.796;7.228;2023-07-02T10:06:51;21.70;99.90
6581;DHT22;3324;50.796;7.228;2023-07-02T10:09:18;22.10;99.90
6581;DHT22;3324;50.796;7.228;2023-07-02T10:11:44;22.30;99.90
6581;DHT22;3324;50.796;7.228;2023-07-02T10:14:10;22.60;99.90
6581;DHT22;3324;50.796;7.228;2023-07-02T10:16:52;22.90;99.90
6581;DHT22;3324;50.796;7.228;2023-07-02T10:19:18;23.10;99.90
6581;DHT22;3324;50.796;7.228;2023-07-02T10:21:44;23.50;99.90
6581;DHT22;3324;50.796;7.228;2023-07-02T10:24:17;23.90;99.90
6581;DHT22;3324;50.796;7.228;2023-07-02T10:27:00;23.80;99.90
6581;DHT22;3324;50.796;7.228;2023-07-02T10:29:27;23.50;99.90
6581;DHT22;3324;50.796;7.228;2023-07-02T10:31:54;23.20;99.90
6581;DHT22;3324;50.796;7.228;2023-07-02T10:34:34;22.90;99.90
6581;DHT22;3324;50.796;7.228;2023-07-02T10:37:01;22.80;99.90
6581;DHT22;3324;50.796;7.228;2023-07-02T10:39:30;22.60;99.90
6581;DHT22;3324;50.796;7.228;2023-07-02T10:42:16;22.70;99.90
6581;DHT22;3324;50.796;7.228;2023-07-02T10:44:51;22.80;99.90
6581;DHT22;3324;50.796;7.228;2023-07-02T10:47:17;23.20;99.90
6581;DHT22;3324;50.796;7.228;2023-07-02T10:49:43;23.50;99.90
6581;DHT22;3324;50.796;7.228;2023-07-02T10:52:08;23.70;99.90
6581;DHT22;3324;50.796;7.228;2023-07-02T10:54:47;23.70;99.90
6581;DHT22;3324;50.796;7.228;2023-07-02T10:57:14;23.60;99.90
6581;DHT22;3324;50.796;7.228;2023-07-02T10:59:41;23.50;99.90
6581;DHT22;3324;50.796;7.228;2023-07-02T11:02:08;23.30;99.90
6581;DHT22;3324;50.796;7.228;2023-07-02T11:04:36;23.00;99.90
6581;DHT22;3324;50.796;7.228;2023-07-02T11:07:03;22.90;99.90
6581;DHT22;3324;50.796;7.228;2023-07-02T11:09:29;22.80;99.90
6581;DHT22;3324;50.796;7.228;2023-07-02T11:14:34;22.70;99.90
6581;DHT22;3324;50.796;7.228;2023-07-02T11:17:03;23.00;99.90
6581;DHT22;3324;50.796;7.228;2023-07-02T11:19:31;23.30;99.90
6581;DHT22;3324;50.796;7.228;2023-07-02T11:21:57;23.70;99.90
6581;DHT22;3324;50.796;7.228;2023-07-02T11:26:55;24.40;99.90
6581;DHT22;3324;50.796;7.228;2023-07-02T11:29:21;24.80;99.90
6581;DHT22;3324;50.796;7.228;2023-07-02T11:31:47;25.10;99.90
6581;DHT22;3324;50.796;7.228;2023-07-02T11:34:17;25.20;99.90
6581;DHT22;3324;50.796;7.228;2023-07-02T11:36:43;25.40;99.70
6581;DHT22;3324;50.796;7.228;2023-07-02T11:39:10;25.50;99.90
6581;DHT22;3324;50.796;7.228;2023-07-02T11:41:39;25.30;99.90
6581;DHT22;3324;50.796;7.228;2023-07-02T11:44:06;25.10;99.20
6581;DHT22;3324;50.796;7.228;2023-07-02T11:46:32;24.70;99.90
6581;DHT22;3324;50.796;7.228;2023-07-02T11:48:59;24.40;99.90
6581;DHT22;3324;50.796;7.228;2023-07-02T11:51:25;24.10;99.90
6581;DHT22;3324;50.796;7.228;2023-07-02T11:53:50;23.90;99.90
6581;DHT22;3324;50.796;7.228;2023-07-02T11:56:16;23.70;99.90
6581;DHT22;3324;50.796;7.228;2023-07-02T11:58:42;23.50;99.90
6581;DHT22;3324;50.796;7.228;2023-07-02T12:01:08;23.30;99.90
6581;DHT22;3324;50.796;7.228;2023-07-02T12:03:34;23.20;99.90
6581;DHT22;3324;50.796;7.228;2023-07-02T12:05:59;23.00;99.90
6581;DHT22;3324;50.796;7.228;2023-07-02T12:08:25;22.90;99.90
6581;DHT22;3324;50.796;7.228;2023-07-02T12:10:50;23.10;99.90
6581;DHT22;3324;50.796;7.228;2023-07-02T12:13:16;23.50;99.90
6581;DHT22;3324;50.796;7.228;2023-07-02T12:15:42;23.70;99.90
6581;DHT22;3324;50.796;7.228;2023-07-02T12:18:09;23.90;99.90
6581;DHT22;3324;50.796;7.228;2023-07-02T12:20:35;24.00;99.90
6581;DHT22;3324;50.796;7.228;2023-07-02T12:23:00;24.00;99.90
6581;DHT22;3324;50.796;7.228;2023-07-02T12:25:26;23.90;99.90
6581;DHT22;3324;50.796;7.228;2023-07-02T12:27:51;23.90;99.90
6581;DHT22;3324;50.796;7.228;2023-07-02T12:30:17;23.80;99.90
6581;DHT22;3324;50.796;7.228;2023-07-02T12:32:44;23.80;99.90
6581;DHT22;3324;50.796;7.228;2023-07-02T12:35:10;23.90;99.90
6581;DHT22;3324;50.796;7.228;2023-07-02T12:37:46;24.00;99.90
6581;DHT22;3324;50.796;7.228;2023-07-02T12:40:12;24.20;99.90
6581;DHT22;3324;50.796;7.228;2023-07-02T12:42:37;24.20;99.90
6581;DHT22;3324;50.796;7.228;2023-07-02T12:45:05;24.20;99.90
6581;DHT22;3324;50.796;7.228;2023-07-02T12:47:30;24.00;99.90
6581;DHT22;3324;50.796;7.228;2023-07-02T12:49:56;24.00;99.90
6581;DHT22;3324;50.796;7.228;2023-07-02T12:52:22;24.10;99.90
6581;DHT22;3324;50.796;7.228;2023-07-02T12:54:48;24.10;99.90
6581;DHT22;3324;50.796;7.228;2023-07-02T12:57:14;24.00;99.90
6581;DHT22;3324;50.796;7.228;2023-07-02T12:59:39;24.00;99.90
6581;DHT22;3324;50.796;7.228;2023-07-02T13:02:05;24.00;99.90
6581;DHT22;3324;50.796;7.228;2023-07-02T13:04:31;24.00;99.90
6581;DHT22;3324;50.796;7.228;2023-07-02T13:06:56;24.00;99.90
6581;DHT22;3324;50.796;7.228;2023-07-02T13:09:22;23.90;99.90
6581;DHT22;3324;50.796;7.228;2023-07-02T13:11:48;23.90;99.90
6581;DHT22;3324;50.796;7.228;2023-07-02T13:14:13;23.80;99.90
6581;DHT22;3324;50.796;7.228;2023-07-02T13:16:39;23.80;99.90
6581;DHT22;3324;50.796;7.228;2023-07-02T13:19:04;23.80;99.90
6581;DHT22;3324;50.796;7.228;2023-07-02T13:21:30;23.90;99.90
6581;DHT22;3324;50.796;7.228;2023-07-02T13:23:56;24.10;99.30
6581;DHT22;3324;50.796;7.228;2023-07-02T13:26:21;24.20;99.00
6581;DHT22;3324;50.796;7.228;2023-07-02T13:28:47;24.20;98.30
6581;DHT22;3324;50.796;7.228;2023-07-02T13:31:14;24.10;99.90
6581;DHT22;3324;50.796;7.228;2023-07-02T13:33:40;24.30;99.90
6581;DHT22;3324;50.796;7.228;2023-07-02T13:36:06;24.60;99.90
6581;DHT22;3324;50.796;7.228;2023-07-02T13:38:32;24.70;99.90
6581;DHT22;3324;50.796;7.228;2023-07-02T13:40:58;24.80;99.90
6581;DHT22;3324;50.796;7.228;2023-07-02T13:43:24;24.80;99.90
6581;DHT22;3324;50.796;7.228;2023-07-02T13:45:50;24.70;99.90
6581;DHT22;3324;50.796;7.228;2023-07-02T13:48:16;24.70;99.90
6581;DHT22;3324;50.796;7.228;2023-07-02T13:50:41;24.50;99.30
6581;DHT22;3324;50.796;7.228;2023-07-02T13:53:08;24.20;99.90
6581;DHT22;3324;50.796;7.228;2023-07-02T13:55:34;24.20;99.90
6581;DHT22;3324;50.796;7.228;2023-07-02T13:58:01;24.20;99.90
6581;DHT22;3324;50.796;7.228;2023-07-02T14:00:27;24.20;99.90
6581;DHT22;3324;50.796;7.228;2023-07-02T14:02:53;24.30;99.90
6581;DHT22;3324;50.796;7.228;2023-07-02T14:05:19;24.40;99.90
6581;DHT22;3324;50.796;7.228;2023-07-02T14:07:45;24.30;99.30
6581;DHT22;3324;50.796;7.228;2023-07-02T14:10:11;24.30;99.90
6581;DHT22;3324;50.796;7.228;2023-07-02T14:12:38;24.40;99.90
6581;DHT22;3324;50.796;7.228;2023-07-02T14:15:04;24.50;99.90
6581;DHT22;3324;50.796;7.228;2023-07-02T14:17:30;24.60;99.90
6581;DHT22;3324;50.796;7.228;2023-07-02T14:19:56;24.70;99.90
6581;DHT22;3324;50.796;7.228;2023-07-02T14:22:21;24.90;99.70
6581;DHT22;3324;50.796;7.228;2023-07-02T14:24:47;24.90;99.20
6581;DHT22;3324;50.796;7.228;2023-07-02T14:27:12;24.90;99.90
6581;DHT22;3324;50.796;7.228;2023-07-02T14:29:38;24.90;98.80
6581;DHT22;3324;50.796;7.228;2023-07-02T14:32:04;25.00;99.90
6581;DHT22;3324;50.796;7.228;2023-07-02T14:34:30;24.90;99.20
6581;DHT22;3324;50.796;7.228;2023-07-02T14:36:58;24.80;99.20
6581;DHT22;3324;50.796;7.228;2023-07-02T14:39:23;24.70;99.90
6581;DHT22;3324;50.796;7.228;2023-07-02T14:41:49;24.70;99.90
6581;DHT22;3324;50.796;7.228;2023-07-02T14:44:14;24.60;98.80
6581;DHT22;3324;50.796;7.228;2023-07-02T14:46:40;24.60;99.50
6581;DHT22;3324;50.796;7.228;2023-07-02T14:49:08;24.60;99.80
6581;DHT22;3324;50.796;7.228;2023-07-02T14:51:34;24.60;99.90
6581;DHT22;3324;50.796;7.228;2023-07-02T14:53:59;24.80;96.70
6581;DHT22;3324;50.796;7.228;2023-07-02T14:56:26;24.90;98.10
6581;DHT22;3324;50.796;7.228;2023-07-02T14:58:52;24.90;97.90
6581;DHT22;3324;50.796;7.228;2023-07-02T15:01:18;25.00;99.30
6581;DHT22;3324;50.796;7.228;2023-07-02T15:03:43;25.00;97.70
6581;DHT22;3324;50.796;7.228;2023-07-02T15:06:12;24.80;98.60
6581;DHT22;3324;50.796;7.228;2023-07-02T15:08:38;24.70;98.50
6581;DHT22;3324;50.796;7.228;2023-07-02T15:11:04;24.60;98.90
6581;DHT22;3324;50.796;7.228;2023-07-02T15:13:30;24.60;98.10
6581;DHT22;3324;50.796;7.228;2023-07-02T15:15:56;24.50;98.30
6581;DHT22;3324;50.796;7.228;2023-07-02T15:18:26;24.40;98.60
6581;DHT22;3324;50.796;7.228;2023-07-02T15:20:53;24.40;95.80
6581;DHT22;3324;50.796;7.228;2023-07-02T15:23:20;24.30;97.80
6581;DHT22;3324;50.796;7.228;2023-07-02T15:25:57;24.30;98.60
6581;DHT22;3324;50.796;7.228;2023-07-02T15:28:23;24.20;98.90
6581;DHT22;3324;50.796;7.228;2023-07-02T15:30:53;24.10;99.30
6581;DHT22;3324;50.796;7.228;2023-07-02T15:33:20;24.00;98.80
6581;DHT22;3324;50.796;7.228;2023-07-02T15:35:46;23.90;98.20
6581;DHT22;3324;50.796;7.228;2023-07-02T15:38:11;24.00;99.30
6581;DHT22;3324;50.796;7.228;2023-07-02T15:40:37;23.90;99.90
6581;DHT22;3324;50.796;7.228;2023-07-02T15:43:03;23.80;99.90
6581;DHT22;3324;50.796;7.228;2023-07-02T15:45:28;23.80;99.10
6581;DHT22;3324;50.796;7.228;2023-07-02T15:47:54;24.00;98.70
6581;DHT22;3324;50.796;7.228;2023-07-02T15:50:22;24.00;99.70
6581;DHT22;3324;50.796;7.228;2023-07-02T15:52:48;23.90;99.10
6581;DHT22;3324;50.796;7.228;2023-07-02T15:55:13;23.80;99.90
6581;DHT22;3324;50.796;7.228;2023-07-02T15:57:39;23.80;98.70
6581;DHT22;3324;50.796;7.228;2023-07-02T16:00:05;23.90;97.80
6581;DHT22;3324;50.796;7.228;2023-07-02T16:02:31;23.80;98.70
6581;DHT22;3324;50.796;7.228;2023-07-02T16:04:56;23.80;97.40
6581;DHT22;3324;50.796;7.228;2023-07-02T16:07:23;23.80;98.40